sensor_id;sensor_type;location;lat;lon;timestamp;temperature;humidity
16700;DHT22;8466;52.286;21.124;2022-11-12T00:01:54;10.50;99.90
16700;DHT22;8466;52.286;21.124;2022-11-12T00:04:23;10.40;99.90
16700;DHT22;8466;52.286;21.124;2022-11-12T00:06:52;10.50;99.90
16700;DHT22;8466;52.286;21.124;2022-11-12T00:09:21;10.50;99.90
16700;DHT22;8466;52.286;21.124;2022-11-12T00:11:49;10.50;99.90
16700;DHT22;8466;52.286;21.124;2022-11-12T00:14:19;10.50;99.90
16700;DHT22;8466;52.286;21.124;2022-11-12T00:16:48;10.50;99.90
16700;DHT22;8466;52.286;21.124;2022-11-12T00:19:16;10.50;99.90
16700;DHT22;8466;52.286;21.124;2022-11-12T00:21:46;10.50;99.90
16700;DHT22;8466;52.286;21.124;2022-11-12T00:24:15;10.50;99.90
16700;DHT22;8466;52.286;21.124;2022-11-12T00:26:44;10.50;99.90
16700;DHT22;8466;52.286;21.124;2022-11-12T00:29:12;10.50;99.90
16700;DHT22;8466;52.286;21.124;2022-11-12T00:31:42;10.50;99.90
16700;DHT22;8466;52.286;21.124;2022-11-12T00:34:11;10.50;99.90
16700;DHT22;8466;52.286;21.124;2022-11-12T00:36:40;10.50;99.90
16700;DHT22;8466;52.286;21.124;2022-11-12T00:39:08;10.50;99.90
16700;DHT22;8466;52.286;21.124;2022-11-12T00:41:37;10.40;99.90
16700;DHT22;8466;52.286;21.124;2022-11-12T00:44:07;10.50;99.90
16700;DHT22;8466;52.286;21.124;2022-11-12T00:46:36;10.40;99.90
16700;DHT22;8466;52.286;21.124;2022-11-12T00:49:07;10.50;99.90
16700;DHT22;8466;52.286;21.124;2022-11-12T00:51:36;10.50;99.90
16700;DHT22;8466;52.286;21.124;2022-11-12T00:54:05;10.50;99.90
16700;DHT22;8466;52.286;21.124;2022-11-12T00:56:35;10.40;99.90
16700;DHT22;8466;52.286;21.124;2022-11-12T00:59:03;10.40;99.90
16700;DHT22;8466;52.286;21.124;2022-11-12T01:01:32;10.50;99.90
16700;DHT22;8466;52.286;21.124;2022-11-12T01:04:01;10.40;99.90
16700;DHT22;8466;52.286;21.124;2022-11-12T01:06:31;10.50;99.90
16700;DHT22;8466;52.286;21.124;2022-11-12T01:09:00;10.40;99.90
16700;DHT22;8466;52.286;21.124;2022-11-12T01:11:29;10.40;99.90
16700;DHT22;8466;52.286;21.124;2022-11-12T01:13:59;10.40;99.90
16700;DHT22;8466;52.286;21.124;2022-11-12T01:16:30;10.40;99.90
16700;DHT22;8466;52.286;21.124;2022-11-12T01:19:00;10.40;99.90
16700;DHT22;8466;52.286;21.124;2022-11-12T01:21:31;10.50;99.90
16700;DHT22;8466;52.286;21.124;2022-11-12T01:24:00;10.50;99.90
16700;DHT22;8466;52.286;21.124;2022-11-12T01:26:29;10.50;99.90
16700;DHT22;8466;52.286;21.124;2022-11-12T01:28:58;10.50;99.90
16700;DHT22;8466;52.286;21.124;2022-11-12T01:31:29;10.50;99.90
16700;DHT22;8466;52.286;21.124;2022-11-12T01:34:01;10.50;99.90
16700;DHT22;8466;52.286;21.124;2022-11-12T01:36:34;10.50;99.90
16700;DHT22;8466;52.286;21.124;2022-11-12T01:39:03;10.40;99.90
16700;DHT22;8466;52.286;21.124;2022-11-12T01:41:35;10.40;99.90
16700;DHT22;8466;52.286;21.124;2022-11-12T01:44:08;10.40;99.90
16700;DHT22;8466;52.286;21.124;2022-11-12T01:46:43;10.50;99.90
16700;DHT22;8466;52.286;21.124;2022-11-12T01:52:29;10.40;99.90
16700;DHT22;8466;52.286;21.124;2022-11-12T01:55:02;10.40;99.90
16700;DHT22;8466;52.286;21.124;2022-11-12T01:57:35;10.40;99.90
16700;DHT22;8466;52.286;21.124;2022-11-12T02:00:08;10.40;99.90
16700;DHT22;8466;52.286;21.124;2022-11-12T02:02:38;10.40;99.90
16700;DHT22;8466;52.286;21.124;2022-11-12T02:05:09;10.40;99.90
16700;DHT22;8466;52.286;21.124;2022-11-12T02:07:41;10.40;99.90
16700;DHT22;8466;52.286;21.124;2022-11-12T02:10:10;10.50;99.90
16700;DHT22;8466;52.286;21.124;2022-11-12T02:12:40;10.50;99.90
16700;DHT22;8466;52.286;21.124;2022-11-12T02:15:27;10.50;99.90
16700;DHT22;8466;52.286;21.124;2022-11-12T02:17:57;10.40;99.90
16700;DHT22;8466;52.286;21.124;2022-11-12T02:20:25;10.40;99.90
16700;DHT22;8466;52.286;21.124;2022-11-12T02:22:55;10.50;99.90
16700;DHT22;8466;52.286;21.124;2022-11-12T02:25:24;10.50;99.90
16700;DHT22;8466;52.286;21.124;2022-11-12T02:27:55;10.50;99.90
16700;DHT22;8466;52.286;21.124;2022-11-12T02:30:31;10.50;99.90
16700;DHT22;8466;52.286;21.124;2022-11-12T02:33:00;10.50;99.90
16700;DHT22;8466;52.286;21.124;2022-11-12T02:35:30;10.40;99.90
16700;DHT22;8466;52.286;21.124;2022-11-12T02:38:00;10.40;99.90
16700;DHT22;8466;52.286;21.124;2022-11-12T02:40:29;10.40;99.90
16700;DHT22;8466;52.286;21.124;2022-11-12T02:42:57;10.40;99.90
16700;DHT22;8466;52.286;21.124;2022-11-12T02:45:26;10.40;99.90
16700;DHT22;8466;52.286;21.124;2022-11-12T02:47:56;10.40;99.90
16700;DHT22;8466;52.286;21.124;2022-11-12T02:50:25;10.40;99.90
16700;DHT22;8466;52.286;21.124;2022-11-12T02:52:54;10.50;99.90
16700;DHT22;8466;52.286;21.124;2022-11-12T02:55:24;10.50;99.90
16700;DHT22;8466;52.286;21.124;2022-11-12T02:57:56;10.40;99.90
16700;DHT22;8466;52.286;21.124;2022-11-12T03:00:25;10.40;99.90
16700;DHT22;8466;52.286;21.124;2022-11-12T03:02:54;10.40;99.90
16700;DHT22;8466;52.286;21.124;2022-11-12T03:05:27;10.40;99.90
16700;DHT22;8466;52.286;21.124;2022-11-12T03:07:57;10.40;99.90
16700;DHT22;8466;52.286;21.124;2022-11-12T03:10:28;10.40;99.90
16700;DHT22;8466;52.286;21.124;2022-11-12T03:12:59;10.50;99.90
16700;DHT22;8466;52.286;21.124;2022-11-12T03:15:29;10.50;99.90
16700;DHT22;8466;52.286;21.124;2022-11-12T03:17:58;10.40;99.90
16700;DHT22;8466;52.286;21.124;2022-11-12T03:20:27;10.40;99.90
16700;DHT22;8466;52.286;21.124;2022-11-12T03:22:59;10.40;99.90
16700;DHT22;8466;52.286;21.124;2022-11-12T03:25:29;10.40;99.90
16700;DHT22;8466;52.286;21.124;2022-11-12T03:27:59;10.50;99.90
16700;DHT22;8466;52.286;21.124;2022-11-12T03:30:30;10.40;99.90
16700;DHT22;8466;52.286;21.124;2022-11-12T03:32:59;10.40;99.90
16700;DHT22;8466;52.286;21.124;2022-11-12T03:35:28;10.40;99.90
16700;DHT22;8466;52.286;21.124;2022-11-12T03:37:58;10.40;99.90
16700;DHT22;8466;52.286;21.124;2022-11-12T03:40:29;10.40;99.90
16700;DHT22;8466;52.286;21.124;2022-11-12T03:42:58;10.40;99.90
16700;DHT22;8466;52.286;21.124;2022-11-12T03:45:27;10.40;99.90
16700;DHT22;8466;52.286;21.124;2022-11-12T03:47:57;10.40;99.90
16700;DHT22;8466;52.286;21.124;2022-11-12T03:50:27;10.40;99.90
16700;DHT22;8466;52.286;21.124;2022-11-12T03:52:58;10.40;99.90
16700;DHT22;8466;52.286;21.124;2022-11-12T03:55:29;10.40;99.90
16700;DHT22;8466;52.286;21.124;2022-11-12T03:57:58;10.30;99.90
16700;DHT22;8466;52.286;21.124;2022-11-12T04:00:27;10.30;99.90
16700;DHT22;8466;52.286;21.124;2022-11-12T04:02:57;10.30;99.90
16700;DHT22;8466;52.286;21.124;2022-11-12T04:05:26;10.30;99.90
16700;DHT22;8466;52.286;21.124;2022-11-12T04:08:15;10.30;99.90
16700;DHT22;8466;52.286;21.124;2022-11-12T04:11:05;10.30;99.90
16700;DHT22;8466;52.286;21.124;2022-11-12T04:13:34;10.30;99.90
16700;DHT22;8466;52.286;21.124;2022-11-12T04:16:06;10.30;99.90
16700;DHT22;8466;52.286;21.124;2022-11-12T04:18:54;10.30;99.90
16700;DHT22;8466;52.286;21.124;2022-11-12T04:21:43;10.30;99.90
16700;DHT22;8466;52.286;21.124;2022-11-12T04:24:23;10.30;99.90
16700;DHT22;8466;52.286;21.124;2022-11-12T04:27:12;10.20;99.90
16700;DHT22;8466;52.286;21.124;2022-11-12T04:29:42;10.20;99.90
16700;DHT22;8466;52.286;21.124;2022-11-12T04:32:29;10.20;99.90
16700;DHT22;8466;52.286;21.124;2022-11-12T04:34:58;10.20;99.90
16700;DHT22;8466;52.286;21.124;2022-11-12T04:37:29;10.20;99.90
16700;DHT22;8466;52.286;21.124;2022-11-12T04:40:12;10.20;99.90
16700;DHT22;8466;52.286;21.124;2022-11-12T04:43:00;10.20;99.90
16700;DHT22;8466;52.286;21.124;2022-11-12T04:45:50;10.20;99.90
16700;DHT22;8466;52.286;21.124;2022-11-12T04:48:20;10.10;99.90
16700;DHT22;8466;52.286;21.124;2022-11-12T04:50:51;10.10;99.90
16700;DHT22;8466;52.286;21.124;2022-11-12T04:53:21;10.10;99.90
16700;DHT22;8466;52.286;21.124;2022-11-12T04:55:50;10.10;99.90
16700;DHT22;8466;52.286;21.124;2022-11-12T04:58:21;10.10;99.90
16700;DHT22;8466;52.286;21.124;2022-11-12T05:00:50;10.10;99.90
16700;DHT22;8466;52.286;21.124;2022-11-12T05:03:19;10.10;99.90
16700;DHT22;8466;52.286;21.124;2022-11-12T05:05:48;10.10;99.90
16700;DHT22;8466;52.286;21.124;2022-11-12T05:08:16;10.10;99.90
16700;DHT22;8466;52.286;21.124;2022-11-12T05:10:45;10.10;99.90
16700;DHT22;8466;52.286;21.124;2022-11-12T05:13:14;10.10;99.90
16700;DHT22;8466;52.286;21.124;2022-11-12T05:15:44;10.10;99.90
16700;DHT22;8466;52.286;21.124;2022-11-12T05:18:13;10.10;99.90
16700;DHT22;8466;52.286;21.124;2022-11-12T05:20:41;10.00;99.90
16700;DHT22;8466;52.286;21.124;2022-11-12T05:23:10;10.00;99.90
16700;DHT22;8466;52.286;21.124;2022-11-12T05:25:39;10.00;99.90
16700;DHT22;8466;52.286;21.124;2022-11-12T05:28:07;10.00;99.90
16700;DHT22;8466;52.286;21.124;2022-11-12T05:30:36;10.00;99.90
16700;DHT22;8466;52.286;21.124;2022-11-12T05:33:06;10.00;99.90
16700;DHT22;8466;52.286;21.124;2022-11-12T05:35:35;10.00;99.90
16700;DHT22;8466;52.286;21.124;2022-11-12T05:38:03;10.00;99.90
16700;DHT22;8466;52.286;21.124;2022-11-12T05:40:32;10.00;99.90
16700;DHT22;8466;52.286;21.124;2022-11-12T05:43:01;10.00;99.90
16700;DHT22;8466;52.286;21.124;2022-11-12T05:45:29;10.00;99.90
16700;DHT22;8466;52.286;21.124;2022-11-12T05:47:58;10.00;99.90
16700;DHT22;8466;52.286;21.124;2022-11-12T05:50:28;10.00;99.90
16700;DHT22;8466;52.286;21.124;2022-11-12T05:53:11;10.00;99.90
16700;DHT22;8466;52.286;21.124;2022-11-12T05:55:40;10.00;99.90
16700;DHT22;8466;52.286;21.124;2022-11-12T05:58:08;10.00;99.90
16700;DHT22;8466;52.286;21.124;2022-11-12T06:00:40;9.90;99.90
16700;DHT22;8466;52.286;21.124;2022-11-12T06:03:11;10.00;99.90
16700;DHT22;8466;52.286;21.124;2022-11-12T06:05:41;9.90;99.90
16700;DHT22;8466;52.286;21.124;2022-11-12T06:08:09;9.90;99.90
16700;DHT22;8466;52.286;21.124;2022-11-12T06:10:38;9.80;99.90
16700;DHT22;8466;52.286;21.124;2022-11-12T06:13:09;9.80;99.90
16700;DHT22;8466;52.286;21.124;2022-11-12T06:15:38;9.80;99.90
16700;DHT22;8466;52.286;21.124;2022-11-12T06:18:07;9.70;99.90
16700;DHT22;8466;52.286;21.124;2022-11-12T06:20:35;9.70;99.90
16700;DHT22;8466;52.286;21.124;2022-11-12T06:23:05;9.70;99.90
16700;DHT22;8466;52.286;21.124;2022-11-12T06:25:34;9.60;99.90
16700;DHT22;8466;52.286;21.124;2022-11-12T06:28:03;9.60;99.90
16700;DHT22;8466;52.286;21.124;2022-11-12T06:30:32;9.60;99.90
16700;DHT22;8466;52.286;21.124;2022-11-12T06:33:01;9.50;99.90
16700;DHT22;8466;52.286;21.124;2022-11-12T06:35:30;9.50;99.90
16700;DHT22;8466;52.286;21.124;2022-11-12T06:37:58;9.50;99.90
16700;DHT22;8466;52.286;21.124;2022-11-12T06:40:29;9.50;99.90
16700;DHT22;8466;52.286;21.124;2022-11-12T06:42:58;9.50;99.90
16700;DHT22;8466;52.286;21.124;2022-11-12T06:45:27;9.60;99.90
16700;DHT22;8466;52.286;21.124;2022-11-12T06:47:57;9.50;99.90
16700;DHT22;8466;52.286;21.124;2022-11-12T06:50:25;9.60;99.90
16700;DHT22;8466;52.286;21.124;2022-11-12T06:52:57;9.50;99.90
16700;DHT22;8466;52.286;21.124;2022-11-12T06:55:28;9.60;99.90
16700;DHT22;8466;52.286;21.124;2022-11-12T06:57:56;9.50;99.90
16700;DHT22;8466;52.286;21.124;2022-11-12T07:00:25;9.50;99.90
16700;DHT22;8466;52.286;21.124;2022-11-12T07:02:54;9.50;99.90
16700;DHT22;8466;52.286;21.124;2022-11-12T07:05:22;9.50;99.90
16700;DHT22;8466;52.286;21.124;2022-11-12T07:07:51;9.50;99.90
16700;DHT22;8466;52.286;21.124;2022-11-12T07:10:20;9.50;99.90
16700;DHT22;8466;52.286;21.124;2022-11-12T07:12:52;9.40;99.90
16700;DHT22;8466;52.286;21.124;2022-11-12T07:15:21;9.40;99.90
16700;DHT22;8466;52.286;21.124;2022-11-12T07:17:50;9.40;99.90
16700;DHT22;8466;52.286;21.124;2022-11-12T07:20:19;9.40;99.90
16700;DHT22;8466;52.286;21.124;2022-11-12T07:22:47;9.40;99.90
16700;DHT22;8466;52.286;21.124;2022-11-12T07:25:16;9.30;99.90
16700;DHT22;8466;52.286;21.124;2022-11-12T07:27:45;9.40;99.90
16700;DHT22;8466;52.286;21.124;2022-11-12T07:30:15;9.40;99.90
16700;DHT22;8466;52.286;21.124;2022-11-12T07:32:44;9.40;99.90
16700;DHT22;8466;52.286;21.124;2022-11-12T07:35:18;9.40;99.90
16700;DHT22;8466;52.286;21.124;2022-11-12T07:37:46;9.50;99.90
16700;DHT22;8466;52.286;21.124;2022-11-12T07:40:15;9.40;99.90
16700;DHT22;8466;52.286;21.124;2022-11-12T07:42:44;9.50;99.90
16700;DHT22;8466;52.286;21.124;2022-11-12T07:45:13;9.40;99.90
16700;DHT22;8466;52.286;21.124;2022-11-12T07:47:43;9.50;99.90
16700;DHT22;8466;52.286;21.124;2022-11-12T07:50:11;9.40;99.90
16700;DHT22;8466;52.286;21.124;2022-11-12T07:52:40;9.50;99.90
16700;DHT22;8466;52.286;21.124;2022-11-12T07:55:09;9.50;99.90
16700;DHT22;8466;52.286;21.124;2022-11-12T07:57:39;9.50;99.90
16700;DHT22;8466;52.286;21.124;2022-11-12T08:00:09;9.50;99.90
16700;DHT22;8466;52.286;21.124;2022-11-12T08:02:38;9.60;99.90
16700;DHT22;8466;52.286;21.124;2022-11-12T08:05:08;9.60;99.90
16700;DHT22;8466;52.286;21.124;2022-11-12T08:07:46;9.60;99.90
16700;DHT22;8466;52.286;21.124;2022-11-12T08:10:15;9.60;99.90
16700;DHT22;8466;52.286;21.124;2022-11-12T08:12:44;9.60;99.90
16700;DHT22;8466;52.286;21.124;2022-11-12T08:15:14;9.60;99.90
16700;DHT22;8466;52.286;21.124;2022-11-12T08:17:43;9.70;99.90
16700;DHT22;8466;52.286;21.124;2022-11-12T08:20:14;9.70;99.90
16700;DHT22;8466;52.286;21.124;2022-11-12T08:22:42;9.70;99.90
16700;DHT22;8466;52.286;21.124;2022-11-12T08:25:15;9.70;99.90
16700;DHT22;8466;52.286;21.124;2022-11-12T08:27:45;9.80;99.90
16700;DHT22;8466;52.286;21.124;2022-11-12T08:30:14;9.90;99.90
16700;DHT22;8466;52.286;21.124;2022-11-12T08:32:43;9.80;99.90
16700;DHT22;8466;52.286;21.124;2022-11-12T08:35:13;9.80;99.90
16700;DHT22;8466;52.286;21.124;2022-11-12T08:37:42;9.90;99.90
16700;DHT22;8466;52.286;21.124;2022-11-12T08:40:13;9.90;99.90
16700;DHT22;8466;52.286;21.124;2022-11-12T08:42:42;9.90;99.90
16700;DHT22;8466;52.286;21.124;2022-11-12T08:45:10;9.90;99.90
16700;DHT22;8466;52.286;21.124;2022-11-12T08:47:39;10.00;99.90
16700;DHT22;8466;52.286;21.124;2022-11-12T08:50:08;9.90;99.90
16700;DHT22;8466;52.286;21.124;2022-11-12T08:52:38;10.00;99.90
16700;DHT22;8466;52.286;21.124;2022-11-12T08:55:08;10.00;99.90
16700;DHT22;8466;52.286;21.124;2022-11-12T08:57:39;10.00;99.90
16700;DHT22;8466;52.286;21.124;2022-11-12T09:00:10;10.00;99.90
16700;DHT22;8466;52.286;21.124;2022-11-12T09:02:39;10.00;99.90
16700;DHT22;8466;52.286;21.124;2022-11-12T09:05:08;10.00;99.90
16700;DHT22;8466;52.286;21.124;2022-11-12T09:07:39;10.00;99.90
16700;DHT22;8466;52.286;21.124;2022-11-12T09:10:16;10.00;99.90
16700;DHT22;8466;52.286;21.124;2022-11-12T09:12:49;10.10;99.90
16700;DHT22;8466;52.286;21.124;2022-11-12T09:15:19;10.10;99.90
16700;DHT22;8466;52.286;21.124;2022-11-12T09:18:05;10.10;99.90
16700;DHT22;8466;52.286;21.124;2022-11-12T09:20:34;10.10;99.90
16700;DHT22;8466;52.286;21.124;2022-11-12T09:23:06;10.20;99.90
16700;DHT22;8466;52.286;21.124;2022-11-12T09:25:35;10.10;99.90
16700;DHT22;8466;52.286;21.124;2022-11-12T09:28:07;10.00;99.90
16700;DHT22;8466;52.286;21.124;2022-11-12T09:30:36;10.00;99.90
16700;DHT22;8466;52.286;21.124;2022-11-12T09:33:06;10.00;99.90
16700;DHT22;8466;52.286;21.124;2022-11-12T09:35:34;10.10;99.90
16700;DHT22;8466;52.286;21.124;2022-11-12T09:38:05;10.10;99.90
16700;DHT22;8466;52.286;21.124;2022-11-12T09:40:46;10.10;99.90
16700;DHT22;8466;52.286;21.124;2022-11-12T09:43:20;10.00;99.90
16700;DHT22;8466;52.286;21.124;2022-11-12T09:45:53;10.10;99.90
16700;DHT22;8466;52.286;21.124;2022-11-12T09:48:47;10.00;99.90
16700;DHT22;8466;52.286;21.124;2022-11-12T09:51:24;10.10;99.90
16700;DHT22;8466;52.286;21.124;2022-11-12T09:53:57;10.00;99.90
16700;DHT22;8466;52.286;21.124;2022-11-12T09:56:27;10.00;99.90
16700;DHT22;8466;52.286;21.124;2022-11-12T09:58:56;10.10;99.90
16700;DHT22;8466;52.286;21.124;2022-11-12T10:01:39;10.10;99.90
16700;DHT22;8466;52.286;21.124;2022-11-12T10:04:31;10.10;99.90
16700;DHT22;8466;52.286;21.124;2022-11-12T10:07:11;10.10;99.90
16700;DHT22;8466;52.286;21.124;2022-11-12T10:09:53;10.10;99.90
16700;DHT22;8466;52.286;21.124;2022-11-12T10:12:26;10.20;99.90
16700;DHT22;8466;52.286;21.124;2022-11-12T10:15:14;10.20;99.90
16700;DHT22;8466;52.286;21.124;2022-11-12T10:18:07;10.20;99.90
16700;DHT22;8466;52.286;21.124;2022-11-12T10:20:43;10.20;99.90
16700;DHT22;8466;52.286;21.124;2022-11-12T10:23:18;10.30;99.90
16700;DHT22;8466;52.286;21.124;2022-11-12T10:25:51;10.30;99.90
16700;DHT22;8466;52.286;21.124;2022-11-12T10:28:28;10.30;99.90
16700;DHT22;8466;52.286;21.124;2022-11-12T10:31:10;10.30;99.90
16700;DHT22;8466;52.286;21.124;2022-11-12T10:33:42;10.30;99.90
16700;DHT22;8466;52.286;21.124;2022-11-12T10:36:37;10.30;99.90
16700;DHT22;8466;52.286;21.124;2022-11-12T10:39:30;10.30;99.90
16700;DHT22;8466;52.286;21.124;2022-11-12T10:42:06;10.30;99.90
16700;DHT22;8466;52.286;21.124;2022-11-12T10:44:36;10.20;99.90
16700;DHT22;8466;52.286;21.124;2022-11-12T10:47:26;10.20;99.90
16700;DHT22;8466;52.286;21.124;2022-11-12T10:50:15;10.10;99.90
16700;DHT22;8466;52.286;21.124;2022-11-12T10:53:01;10.10;99.90
16700;DHT22;8466;52.286;21.124;2022-11-12T10:55:31;10.00;99.90
16700;DHT22;8466;52.286;21.124;2022-11-12T10:58:17;10.00;99.90
16700;DHT22;8466;52.286;21.124;2022-11-12T11:00:58;9.90;99.90
16700;DHT22;8466;52.286;21.124;2022-11-12T11:03:30;10.00;99.90
16700;DHT22;8466;52.286;21.124;2022-11-12T11:06:02;9.90;99.90
16700;DHT22;8466;52.286;21.124;2022-11-12T11:08:42;9.80;99.90
16700;DHT22;8466;52.286;21.124;2022-11-12T11:11:20;9.80;99.90
16700;DHT22;8466;52.286;21.124;2022-11-12T11:13:52;9.80;99.90
16700;DHT22;8466;52.286;21.124;2022-11-12T11:16:24;9.80;99.90
16700;DHT22;8466;52.286;21.124;2022-11-12T11:18:55;9.90;99.90
16700;DHT22;8466;52.286;21.124;2022-11-12T11:22:00;9.90;99.90
16700;DHT22;8466;52.286;21.124;2022-11-12T11:24:35;9.90;99.90
16700;DHT22;8466;52.286;21.124;2022-11-12T11:27:16;9.90;99.90
16700;DHT22;8466;52.286;21.124;2022-11-12T11:30:08;10.00;99.90
16700;DHT22;8466;52.286;21.124;2022-11-12T11:32:58;10.00;99.90
16700;DHT22;8466;52.286;21.124;2022-11-12T11:35:41;10.00;99.90
16700;DHT22;8466;52.286;21.124;2022-11-12T11:38:28;10.00;99.90
16700;DHT22;8466;52.286;21.124;2022-11-12T11:41:07;10.10;99.90
16700;DHT22;8466;52.286;21.124;2022-11-12T11:43:49;10.10;99.90
16700;DHT22;8466;52.286;21.124;2022-11-12T11:52:27;10.00;99.90
16700;DHT22;8466;52.286;21.124;2022-11-12T11:55:08;9.90;99.90
16700;DHT22;8466;52.286;21.124;2022-11-12T11:57:47;9.90;99.90
16700;DHT22;8466;52.286;21.124;2022-11-12T12:00:23;9.90;99.90
16700;DHT22;8466;52.286;21.124;2022-11-12T12:03:10;9.90;99.90
16700;DHT22;8466;52.286;21.124;2022-11-12T12:05:41;9.90;99.90
16700;DHT22;8466;52.286;21.124;2022-11-12T12:08:16;9.90;99.90
16700;DHT22;8466;52.286;21.124;2022-11-12T12:10:54;10.00;99.90
16700;DHT22;8466;52.286;21.124;2022-11-12T12:13:45;10.00;99.90
16700;DHT22;8466;52.286;21.124;2022-11-12T12:16:40;10.00;99.90
16700;DHT22;8466;52.286;21.124;2022-11-12T12:19:24;10.00;99.90
16700;DHT22;8466;52.286;21.124;2022-11-12T12:21:56;10.00;99.90
16700;DHT22;8466;52.286;21.124;2022-11-12T12:24:28;10.00;99.90
16700;DHT22;8466;52.286;21.124;2022-11-12T12:27:01;10.00;99.90
16700;DHT22;8466;52.286;21.124;2022-11-12T12:29:35;10.00;99.90
16700;DHT22;8466;52.286;21.124;2022-11-12T12:32:09;10.10;99.90
16700;DHT22;8466;52.286;21.124;2022-11-12T12:34:43;10.00;99.90
16700;DHT22;8466;52.286;21.124;2022-11-12T12:37:21;10.10;99.90
16700;DHT22;8466;52.286;21.124;2022-11-12T12:39:57;10.10;99.90
16700;DHT22;8466;52.286;21.124;2022-11-12T12:42:32;10.10;99.90
16700;DHT22;8466;52.286;21.124;2022-11-12T12:45:20;10.10;99.90
16700;DHT22;8466;52.286;21.124;2022-11-12T12:47:51;10.10;99.90
16700;DHT22;8466;52.286;21.124;2022-11-12T12:50:23;10.00;99.90
16700;DHT22;8466;52.286;21.124;2022-11-12T12:53:00;10.00;99.90
16700;DHT22;8466;52.286;21.124;2022-11-12T12:55:54;10.00;99.90
16700;DHT22;8466;52.286;21.124;2022-11-12T12:58:27;10.00;99.90
16700;DHT22;8466;52.286;21.124;2022-11-12T13:01:00;10.00;99.90
16700;DHT22;8466;52.286;21.124;2022-11-12T13:03:48;10.00;99.90
16700;DHT22;8466;52.286;21.124;2022-11-12T13:06:28;10.00;99.90
16700;DHT22;8466;52.286;21.124;2022-11-12T13:09:04;10.10;99.90
16700;DHT22;8466;52.286;21.124;2022-11-12T13:11:51;10.10;99.90
16700;DHT22;8466;52.286;21.124;2022-11-12T13:15:10;10.10;99.90
16700;DHT22;8466;52.286;21.124;2022-11-12T13:17:49;10.20;99.90
16700;DHT22;8466;52.286;21.124;2022-11-12T13:20:37;10.10;99.90
16700;DHT22;8466;52.286;21.124;2022-11-12T13:23:44;10.10;99.90
16700;DHT22;8466;52.286;21.124;2022-11-12T13:26:49;10.10;99.90
16700;DHT22;8466;52.286;21.124;2022-11-12T13:29:22;10.10;99.90
16700;DHT22;8466;52.286;21.124;2022-11-12T13:35:24;10.10;99.90
16700;DHT22;8466;52.286;21.124;2022-11-12T13:37:56;10.10;99.90
16700;DHT22;8466;52.286;21.124;2022-11-12T13:40:37;10.10;99.90
16700;DHT22;8466;52.286;21.124;2022-11-12T13:43:16;10.10;99.90
16700;DHT22;8466;52.286;21.124;2022-11-12T13:45:49;10.00;99.90
16700;DHT22;8466;52.286;21.124;2022-11-12T13:48:23;10.00;99.90
16700;DHT22;8466;52.286;21.124;2022-11-12T13:50:56;10.00;99.90
16700;DHT22;8466;52.286;21.124;2022-11-12T13:53:27;10.00;99.90
16700;DHT22;8466;52.286;21.124;2022-11-12T13:55:58;10.00;99.90
16700;DHT22;8466;52.286;21.124;2022-11-12T13:58:29;10.10;99.90
16700;DHT22;8466;52.286;21.124;2022-11-12T14:00:59;10.00;99.90
16700;DHT22;8466;52.286;21.124;2022-11-12T14:03:31;9.90;99.90
16700;DHT22;8466;52.286;21.124;2022-11-12T14:06:04;9.90;99.90
16700;DHT22;8466;52.286;21.124;2022-11-12T14:11:54;10.00;99.90
16700;DHT22;8466;52.286;21.124;2022-11-12T14:14:37;10.00;99.90
16700;DHT22;8466;52.286;21.124;2022-11-12T14:17:20;10.00;99.90
16700;DHT22;8466;52.286;21.124;2022-11-12T14:20:09;10.00;99.90
16700;DHT22;8466;52.286;21.124;2022-11-12T14:22:45;10.00;99.90
16700;DHT22;8466;52.286;21.124;2022-11-12T14:25:17;10.00;99.90
16700;DHT22;8466;52.286;21.124;2022-11-12T14:27:48;10.00;99.90
16700;DHT22;8466;52.286;21.124;2022-11-12T14:30:20;10.00;99.90
16700;DHT22;8466;52.286;21.124;2022-11-12T14:32:51;10.00;99.90
16700;DHT22;8466;52.286;21.124;2022-11-12T14:35:32;10.00;99.90
16700;DHT22;8466;52.286;21.124;2022-11-12T14:38:12;10.00;99.90
16700;DHT22;8466;52.286;21.124;2022-11-12T14:40:44;9.90;99.90
16700;DHT22;8466;52.286;21.124;2022-11-12T14:43:32;9.90;99.90
16700;DHT22;8466;52.286;21.124;2022-11-12T14:46:04;9.90;99.90
16700;DHT22;8466;52.286;21.124;2022-11-12T14:48:43;9.90;99.90
16700;DHT22;8466;52.286;21.124;2022-11-12T14:51:13;9.90;99.90
16700;DHT22;8466;52.286;21.124;2022-11-12T14:53:52;9.90;99.90
16700;DHT22;8466;52.286;21.124;2022-11-12T14:56:29;9.90;99.90
16700;DHT22;8466;52.286;21.124;2022-11-12T14:59:03;9.90;99.90
16700;DHT22;8466;52.286;21.124;2022-11-12T15:01:36;9.90;99.90
16700;DHT22;8466;52.286;21.124;2022-11-12T15:04:35;9.90;99.90
16700;DHT22;8466;52.286;21.124;2022-11-12T15:07:05;9.90;99.90
16700;DHT22;8466;52.286;21.124;2022-11-12T15:09:36;9.90;99.90
16700;DHT22;8466;52.286;21.124;2022-11-12T15:12:07;9.90;99.90
16700;DHT22;8466;52.286;21.124;2022-11-12T15:14:38;9.80;99.90
16700;DHT22;8466;52.286;21.124;2022-11-12T15:17:22;9.90;99.90
16700;DHT22;8466;52.286;21.124;2022-11-12T15:19:59;9.90;99.90
16700;DHT22;8466;52.286;21.124;2022-11-12T15:22:29;9.80;99.90
16700;DHT22;8466;52.286;21.124;2022-11-12T15:25:17;9.90;99.90
16700;DHT22;8466;52.286;21.124;2022-11-12T15:27:49;9.80;99.90
16700;DHT22;8466;52.286;21.124;2022-11-12T15:30:22;9.80;99.90
16700;DHT22;8466;52.286;21.124;2022-11-12T15:33:06;9.80;99.90
16700;DHT22;8466;52.286;21.124;2022-11-12T15:35:36;9.80;99.90
16700;DHT22;8466;52.286;21.124;2022-11-12T15:38:13;9.80;99.90
16700;DHT22;8466;52.286;21.124;2022-11-12T15:40:43;9.90;99.90
16700;DHT22;8466;52.286;21.124;2022-11-12T15:43:16;9.80;99.90
16700;DHT22;8466;52.286;21.124;2022-11-12T15:45:50;9.80;99.90
16700;DHT22;8466;52.286;21.124;2022-11-12T15:48:20;9.80;99.90
16700;DHT22;8466;52.286;21.124;2022-11-12T15:50:50;9.80;99.90
16700;DHT22;8466;52.286;21.124;2022-11-12T15:53:19;9.80;99.90
16700;DHT22;8466;52.286;21.124;2022-11-12T15:55:48;9.80;99.90
16700;DHT22;8466;52.286;21.124;2022-11-12T15:58:22;9.80;99.90
16700;DHT22;8466;52.286;21.124;2022-11-12T16:00:56;9.80;99.90
16700;DHT22;8466;52.286;21.124;2022-11-12T16:03:26;9.80;99.90
16700;DHT22;8466;52.286;21.124;2022-11-12T16:05:55;9.80;99.90
16700;DHT22;8466;52.286;21.124;2022-11-12T16:08:24;9.80;99.90
16700;DHT22;8466;52.286;21.124;2022-11-12T16:10:52;9.80;99.90
16700;DHT22;8466;52.286;21.124;2022-11-12T16:13:26;9.80;99.90
16700;DHT22;8466;52.286;21.124;2022-11-12T16:15:57;9.80;99.90
16700;DHT22;8466;52.286;21.124;2022-11-12T16:18:26;9.90;99.90
16700;DHT22;8466;52.286;21.124;2022-11-12T16:20:56;9.90;99.90
16700;DHT22;8466;52.286;21.124;2022-11-12T16:23:25;9.80;99.90
16700;DHT22;8466;52.286;21.124;2022-11-12T16:25:54;9.80;99.90
16700;DHT22;8466;52.286;21.124;2022-11-12T16:28:23;9.80;99.90
16700;DHT22;8466;52.286;21.124;2022-11-12T16:30:52;9.80;99.90